Time;durP1;ratioP1;P1;durP2;ratioP2;P2;SDS_P1;SDS_P2;PMS_P1;PMS_P2;Temp;Humidity;BMP_temperature;BMP_pressure;BME280_temperature;BME280_humidity;BME280_pressure;Samples;Min_cycle;Max_cycle;Signal;HPM_P1;HPM_P2
2022/04/24 00:01:55;;;;;;;1.80;1.70;;;;;;;11.31;81.14;98669.87;1702997;81;21096;-53
2022/04/24 00:04:24;;;;;;;3.30;3.00;;;;;;;11.32;81.23;98676.12;1701495;81;21050;-52
2022/04/24 00:06:53;;;;;;;3.77;2.92;;;;;;;11.31;81.22;98669.03;1703259;81;21356;-52
2022/04/24 00:09:21;;;;;;;3.05;2.50;;;;;;;11.29;81.16;98673.66;1702455;81;22700;-52
2022/04/24 00:11:48;;;;;;;3.12;2.27;;;;;;;11.27;81.15;98670.20;1703234;81;22237;-52
2022/04/24 00:14:17;;;;;;;2.33;2.12;;;;;;;11.25;81.18;98666.73;1700025;81;21472;-52
2022/04/24 00:16:44;;;;;;;1.98;1.87;;;;;;;11.24;81.27;98670.39;1701140;81;21082;-52
2022/04/24 00:19:11;;;;;;;3.30;2.77;;;;;;;11.23;81.29;98671.36;1696724;82;21224;-51
2022/04/24 00:21:38;;;;;;;3.08;2.65;;;;;;;11.20;81.31;98666.20;1700521;81;21531;-51
2022/04/24 00:24:06;;;;;;;2.35;2.15;;;;;;;11.20;81.39;98664.85;1701268;81;21379;-51
2022/04/24 00:26:33;;;;;;;2.27;2.05;;;;;;;11.18;81.48;98659.56;1700910;81;21018;-51
2022/04/24 00:29:01;;;;;;;2.80;2.60;;;;;;;11.19;81.47;98660.43;1700982;82;21061;-51
2022/04/24 00:31:29;;;;;;;3.05;2.85;;;;;;;11.18;81.57;98659.56;1699992;81;21057;-51
2022/04/24 00:33:55;;;;;;;3.40;2.67;;;;;;;11.20;81.57;98654.08;1707518;81;21141;-51
2022/04/24 00:36:23;;;;;;;2.55;2.35;;;;;;;11.20;81.55;98656.77;1698859;81;21050;-51
2022/04/24 00:38:50;;;;;;;4.40;3.47;;;;;;;11.18;81.60;98660.05;1702157;81;21076;-51
2022/04/24 00:41:16;;;;;;;3.90;3.45;;;;;;;11.18;81.66;98670.81;1696514;81;21171;-52
2022/04/24 00:43:56;;;;;;;4.97;4.67;;;;;;;11.16;81.66;98668.70;1702528;81;21108;-51
2022/04/24 00:47:01;;;;;;;7.60;6.90;;;;;;;11.14;81.68;98676.91;1705662;81;20911;-53
2022/04/24 00:49:28;;;;;;;6.33;5.78;;;;;;;11.12;81.73;98683.36;1707699;81;22159;-53
2022/04/24 00:51:56;;;;;;;6.92;6.33;;;;;;;11.09;81.80;98681.73;1702463;81;21030;-52
2022/04/24 00:54:23;;;;;;;6.75;5.83;;;;;;;11.08;81.84;98678.65;1701359;81;21049;-52
2022/04/24 00:56:50;;;;;;;5.00;4.30;;;;;;;11.07;81.91;98673.36;1697919;81;21957;-52
2022/04/24 00:59:18;;;;;;;3.75;3.45;;;;;;;11.06;81.97;98678.39;1700149;81;21053;-52
2022/04/24 01:01:45;;;;;;;5.00;4.60;;;;;;;11.04;82.05;98675.80;1701667;81;21134;-52
2022/04/24 01:04:13;;;;;;;4.45;4.15;;;;;;;11.06;82.18;98672.50;1699085;81;22505;-52
2022/04/24 01:06:42;;;;;;;4.92;3.67;;;;;;;11.06;82.13;98667.11;1700410;81;21073;-52
2022/04/24 01:09:21;;;;;;;4.85;4.45;;;;;;;11.05;82.14;98668.11;1703138;81;21538;-52
2022/04/24 01:11:51;;;;;;;5.12;4.00;;;;;;;11.05;82.24;98661.86;1701005;81;21081;-52
2022/04/24 01:14:19;;;;;;;5.37;3.47;;;;;;;11.05;82.34;98657.33;1700575;81;21451;-52
2022/04/24 01:16:46;;;;;;;5.20;4.45;;;;;;;11.07;82.34;98657.20;1703246;81;21045;-52
2022/04/24 01:19:15;;;;;;;4.40;3.72;;;;;;;11.07;82.30;98666.14;1700979;81;21525;-52
2022/04/24 01:21:42;;;;;;;3.70;3.40;;;;;;;11.06;82.37;98661.72;1703186;81;20939;-53
2022/04/24 01:24:09;;;;;;;5.08;4.58;;;;;;;11.07;82.34;98660.77;1702526;81;21120;-52
2022/04/24 01:26:36;;;;;;;5.65;4.87;;;;;;;11.07;82.39;98660.77;1702363;81;21767;-52
2022/04/24 01:29:04;;;;;;;7.00;5.35;;;;;;;11.07;82.41;98663.94;1705942;81;21410;-53
2022/04/24 01:31:33;;;;;;;7.15;6.15;;;;;;;11.08;82.45;98661.63;1703559;81;20958;-52
2022/04/24 01:33:59;;;;;;;7.83;6.75;;;;;;;11.07;82.37;98662.59;1703624;81;21059;-52
2022/04/24 01:36:27;;;;;;;6.30;5.72;;;;;;;11.05;82.39;98663.20;1703086;81;21089;-52
2022/04/24 01:38:55;;;;;;;5.58;4.70;;;;;;;11.02;82.44;98668.30;1699668;81;21125;-52
2022/04/24 01:41:23;;;;;;;5.37;4.65;;;;;;;11.00;82.48;98667.05;1700436;81;21093;-52
2022/04/24 01:43:49;;;;;;;7.55;5.60;;;;;;;10.98;82.54;98670.80;1707114;81;20938;-52
2022/04/24 01:46:18;;;;;;;6.47;4.95;;;;;;;10.98;82.65;98665.41;1698628;81;21057;-52
2022/04/24 01:48:45;;;;;;;5.08;4.58;;;;;;;10.96;82.72;98668.23;1703619;81;21046;-53
2022/04/24 01:51:14;;;;;;;7.10;4.45;;;;;;;10.96;82.78;98655.25;1704695;81;21570;-53
2022/04/24 01:53:41;;;;;;;7.20;6.30;;;;;;;10.95;82.79;98667.86;1705103;81;21340;-53
2022/04/24 01:56:08;;;;;;;6.28;4.53;;;;;;;10.95;82.83;98662.47;1707594;81;21009;-49
2022/04/24 01:58:35;;;;;;;5.65;5.05;;;;;;;10.95;82.86;98671.03;1705857;81;21013;-52
2022/04/24 02:01:02;;;;;;;6.83;4.70;;;;;;;10.94;82.98;98668.81;1707133;81;21578;-51
2022/04/24 02:03:31;;;;;;;6.33;4.30;;;;;;;10.95;82.89;98666.51;1707370;81;21567;-50
2022/04/24 02:05:58;;;;;;;7.92;5.15;;;;;;;10.95;82.87;98672.38;1698812;81;21339;-51
2022/04/24 02:08:27;;;;;;;6.28;4.67;;;;;;;10.95;82.89;98680.45;1700929;81;21248;-52
2022/04/24 02:10:54;;;;;;;10.00;5.92;;;;;;;10.94;82.90;98676.89;1704404;81;21563;-53
2022/04/24 02:13:20;;;;;;;8.90;6.45;;;;;;;10.94;82.94;98685.45;1701160;81;21010;-50
2022/04/24 02:15:47;;;;;;;7.87;7.00;;;;;;;10.93;83.00;98679.20;1699028;82;21374;-50
2022/04/24 02:18:16;;;;;;;8.23;7.42;;;;;;;10.93;83.02;98684.59;1702682;81;20875;-51
2022/04/24 02:20:42;;;;;;;9.35;8.33;;;;;;;10.93;83.02;98683.72;1699621;82;21290;-53
2022/04/24 02:23:08;;;;;;;11.18;7.80;;;;;;;10.90;83.01;98679.39;1703835;81;21514;-51
2022/04/24 02:25:35;;;;;;;9.85;8.05;;;;;;;10.89;82.99;98687.56;1697098;81;21041;-53
2022/04/24 02:28:04;;;;;;;7.80;7.05;;;;;;;10.86;83.07;98685.09;1702123;81;21112;-49
2022/04/24 02:30:32;;;;;;;9.15;7.40;;;;;;;10.85;83.15;98697.69;1700018;82;20899;-51
2022/04/24 02:33:00;;;;;;;7.58;6.87;;;;;;;10.84;83.21;98689.71;1701705;81;20967;-52
2022/04/24 02:35:27;;;;;;;9.65;7.17;;;;;;;10.83;83.24;98690.67;1701273;81;21010;-53
2022/04/24 02:37:56;;;;;;;11.95;7.75;;;;;;;10.82;83.36;98688.94;1709859;81;21017;-52
2022/04/24 02:40:24;;;;;;;12.35;8.40;;;;;;;10.81;83.45;98697.50;1703158;81;21455;-52
2022/04/24 02:42:50;;;;;;;12.25;8.05;;;;;;;10.83;83.56;98701.44;1703606;81;21396;-52
2022/04/24 02:45:17;;;;;;;10.90;7.25;;;;;;;10.86;83.62;98707.50;1697487;81;21364;-51
2022/04/24 02:47:43;;;;;;;10.40;7.45;;;;;;;10.88;83.68;98702.02;1692148;81;21661;-50
2022/04/24 02:50:10;;;;;;;12.07;7.95;;;;;;;10.89;83.63;98712.66;1708170;81;21189;-51
2022/04/24 02:52:50;;;;;;;13.83;9.58;;;;;;;10.90;83.69;98718.91;1700859;82;21129;-51
2022/04/24 02:55:17;;;;;;;10.30;7.95;;;;;;;10.91;83.70;98721.51;1707083;81;21477;-52
2022/04/24 02:57:44;;;;;;;14.03;9.35;;;;;;;10.92;83.76;98722.38;1696816;81;21056;-53
2022/04/24 03:00:13;;;;;;;12.37;9.13;;;;;;;10.92;83.75;98723.23;1709333;81;21044;-54
2022/04/24 03:02:44;;;;;;;10.80;9.38;;;;;;;10.92;83.75;98730.45;1702951;81;21191;-50
2022/04/24 03:05:18;;;;;;;14.43;9.38;;;;;;;10.90;83.70;98732.38;1699903;82;21100;-52
2022/04/24 03:07:46;;;;;;;11.93;9.05;;;;;;;10.88;83.75;98735.19;1702836;81;20997;-50
2022/04/24 03:10:14;;;;;;;11.70;9.33;;;;;;;10.87;83.85;98739.33;1699808;81;21107;-53
2022/04/24 03:12:43;;;;;;;10.60;8.45;;;;;;;10.86;83.88;98737.59;1700111;81;21061;-51
2022/04/24 03:15:12;;;;;;;11.25;8.03;;;;;;;10.85;83.94;98743.45;1703446;81;20993;-52
2022/04/24 03:17:39;;;;;;;11.30;8.10;;;;;;;10.85;84.06;98746.15;1701301;81;21730;-53
2022/04/24 03:20:08;;;;;;;8.80;7.50;;;;;;;10.85;84.10;98747.50;1699357;81;22269;-50
2022/04/24 03:22:35;;;;;;;11.43;8.10;;;;;;;10.86;84.18;98769.90;1705794;81;21113;-53
2022/04/24 03:25:05;;;;;;;11.05;6.97;;;;;;;10.86;84.17;98769.90;1699773;82;21070;-51
2022/04/24 03:27:33;;;;;;;5.08;4.70;;;;;;;10.86;84.09;98771.25;1702669;81;21029;-52
2022/04/24 03:29:59;;;;;;;4.42;4.12;;;;;;;10.85;84.01;98774.90;1702288;81;21101;-52
2022/04/24 03:32:31;;;;;;;4.80;3.80;;;;;;;10.84;83.89;98777.20;1703898;81;20993;-51
2022/04/24 03:35:00;;;;;;;3.67;3.35;;;;;;;10.82;83.63;98785.85;1702853;81;21136;-53
2022/04/24 03:37:27;;;;;;;4.90;2.37;;;;;;;10.78;83.33;98787.89;1697040;81;21571;-53
2022/04/24 03:39:54;;;;;;;2.62;2.25;;;;;;;10.77;83.06;98787.51;1702439;81;21041;-52
2022/04/24 03:42:21;;;;;;;3.08;2.33;;;;;;;10.74;82.74;98795.77;1702009;81;22287;-53
2022/04/24 03:44:49;;;;;;;2.33;2.00;;;;;;;10.67;82.59;98792.22;1698484;81;21666;-50
2022/04/24 03:47:15;;;;;;;2.45;2.08;;;;;;;10.63;82.52;98794.74;1701902;81;21148;-49
2022/04/24 03:49:43;;;;;;;2.83;2.47;;;;;;;10.57;82.49;98795.97;1700052;81;21057;-51
2022/04/24 03:52:11;;;;;;;2.50;1.92;;;;;;;10.52;82.51;98804.83;1702551;81;21496;-50
2022/04/24 03:54:38;;;;;;;3.27;2.15;;;;;;;10.47;82.48;98799.72;1698476;81;21472;-52
2022/04/24 03:57:06;;;;;;;2.65;2.45;;;;;;;10.47;82.59;98797.52;1700308;81;20978;-51
2022/04/24 03:59:33;;;;;;;2.33;2.10;;;;;;;10.46;82.54;98799.84;1703951;81;21037;-51
2022/04/24 04:02:00;;;;;;;2.87;2.67;;;;;;;10.45;82.54;98808.88;1702223;81;20994;-50
2022/04/24 04:04:28;;;;;;;1.70;1.50;;;;;;;10.46;82.53;98810.09;1704757;81;21573;-50
2022/04/24 04:06:54;;;;;;;2.20;2.00;;;;;;;10.45;82.54;98815.12;1701349;81;21665;-51
2022/04/24 04:09:22;;;;;;;2.75;1.87;;;;;;;10.43;82.48;98818.38;1700048;81;20965;-49
2022/04/24 04:11:50;;;;;;;4.50;1.92;;;;;;;10.42;82.50;98815.78;1704159;81;21879;-52
2022/04/24 04:14:18;;;;;;;1.80;1.70;;;;;;;10.41;82.48;98825.67;1701890;81;20962;-52
2022/04/24 04:16:45;;;;;;;1.30;1.20;;;;;;;10.42;82.49;98824.72;1702530;81;21058;-52
2022/04/24 04:19:11;;;;;;;2.37;1.37;;;;;;;10.44;82.40;98820.59;1703719;81;21214;-51
2022/04/24 04:21:39;;;;;;;1.80;1.05;;;;;;;10.45;82.19;98826.36;1704327;81;21196;-52
2022/04/24 04:24:08;;;;;;;1.50;1.00;;;;;;;10.46;81.82;98827.58;1699613;81;21074;-53
2022/04/24 04:26:36;;;;;;;1.27;1.17;;;;;;;10.44;81.42;98831.35;1705461;81;21144;-51
2022/04/24 04:29:03;;;;;;;1.15;1.05;;;;;;;10.40;81.10;98832.01;1702738;81;21125;-52
2022/04/24 04:31:30;;;;;;;1.12;0.85;;;;;;;10.38;80.70;98839.30;1697555;81;21044;-50
2022/04/24 04:33:58;;;;;;;1.05;0.80;;;;;;;10.35;80.44;98843.55;1704937;81;21068;-52
2022/04/24 04:36:25;;;;;;;1.00;0.90;;;;;;;10.32;80.16;98838.34;1698705;81;21092;-52
2022/04/24 04:38:51;;;;;;;2.30;0.90;;;;;;;10.37;79.88;98846.15;1700640;81;21085;-52
2022/04/24 04:41:19;;;;;;;1.30;1.10;;;;;;;10.45;79.47;98848.75;1699668;81;21640;-51
2022/04/24 04:43:47;;;;;;;1.02;0.93;;;;;;;10.54;79.16;98854.91;1703238;82;21601;-52
2022/04/24 04:46:13;;;;;;;2.75;1.07;;;;;;;10.67;78.83;98854.98;1702690;81;21199;-51
2022/04/24 04:48:40;;;;;;;1.62;1.52;;;;;;;10.75;78.33;98854.50;1699367;82;21070;-51
2022/04/24 04:51:06;;;;;;;1.70;1.60;;;;;;;10.82;77.75;98855.36;1699667;81;20911;-51
2022/04/24 04:53:34;;;;;;;2.70;1.60;;;;;;;10.85;77.53;98857.87;1707814;81;21124;-52
2022/04/24 04:56:01;;;;;;;2.42;1.72;;;;;;;10.89;77.21;98859.39;1704149;81;21564;-51
2022/04/24 04:58:27;;;;;;;2.50;1.85;;;;;;;10.89;77.00;98867.47;1701220;81;21387;-51
2022/04/24 05:00:55;;;;;;;1.60;1.50;;;;;;;10.92;76.86;98866.42;1700688;81;21273;-51
2022/04/24 05:03:23;;;;;;;1.65;1.55;;;;;;;10.97;76.78;98860.28;1703662;81;21321;-52
2022/04/24 05:05:50;;;;;;;1.50;1.40;;;;;;;11.04;76.59;98868.82;1703375;81;21029;-52
2022/04/24 05:08:17;;;;;;;1.20;1.10;;;;;;;11.08;76.41;98871.69;1701726;81;21210;-51
2022/04/24 05:10:45;;;;;;;1.65;1.20;;;;;;;11.16;76.14;98868.88;1701215;81;21046;-52
2022/04/24 05:13:12;;;;;;;2.20;2.10;;;;;;;11.23;76.06;98873.37;1701079;81;21385;-52
2022/04/24 05:15:38;;;;;;;1.92;1.82;;;;;;;11.30;75.71;98872.05;1673624;82;21065;-52
2022/04/24 05:18:05;;;;;;;2.30;2.20;;;;;;;11.35;75.07;98870.77;1705055;81;21783;-52
2022/04/24 05:20:33;;;;;;;2.55;2.08;;;;;;;11.38;74.46;98871.93;1699952;81;21059;-53
2022/04/24 05:23:05;;;;;;;2.33;2.22;;;;;;;11.42;73.87;98878.45;1699014;81;21051;-52
2022/04/24 05:25:32;;;;;;;3.08;2.67;;;;;;;11.42;73.33;98877.09;1707775;81;20967;-53
2022/04/24 05:28:03;;;;;;;2.98;2.77;;;;;;;11.44;72.85;98884.61;1703432;82;20957;-52
2022/04/24 05:30:29;;;;;;;2.33;2.22;;;;;;;11.46;72.44;98884.90;1701040;81;21348;-52
2022/04/24 05:32:57;;;;;;;2.80;2.60;;;;;;;11.51;72.09;98887.28;1705872;81;20993;-51
2022/04/24 05:35:24;;;;;;;2.52;2.33;;;;;;;11.55;71.23;98882.95;1701446;81;21108;-53
2022/04/24 05:37:50;;;;;;;3.70;3.50;;;;;;;11.59;70.50;98884.94;1703395;81;21112;-53
2022/04/24 05:40:19;;;;;;;3.25;3.05;;;;;;;11.58;70.28;98880.52;1704930;81;21403;-51
2022/04/24 05:42:52;;;;;;;3.90;3.70;;;;;;;11.61;70.50;98883.88;1698731;81;21424;-52
2022/04/24 05:45:19;;;;;;;5.58;4.55;;;;;;;11.64;70.11;98883.70;1702769;81;21064;-51
2022/04/24 05:47:47;;;;;;;3.55;3.40;;;;;;;11.64;70.14;98889.56;1697964;82;21128;-51
2022/04/24 05:50:13;;;;;;;3.85;3.65;;;;;;;11.63;69.69;98886.00;1690895;81;21525;-51
2022/04/24 05:52:41;;;;;;;3.27;3.08;;;;;;;11.63;69.76;98887.83;1693848;81;21866;-52
2022/04/24 05:55:09;;;;;;;3.35;3.05;;;;;;;11.65;70.06;98889.44;1700093;81;21483;-51
2022/04/24 05:57:36;;;;;;;3.75;3.45;;;;;;;11.73;69.91;98884.91;1703592;81;21709;-51
2022/04/24 06:00:06;;;;;;;3.95;3.52;;;;;;;11.82;69.90;98891.55;1706562;81;21081;-51
2022/04/24 06:02:36;;;;;;;3.95;3.75;;;;;;;11.87;69.78;98894.80;1702571;81;20950;-51
2022/04/24 06:05:06;;;;;;;4.15;3.95;;;;;;;11.90;69.38;98891.42;1698994;81;21139;-51
2022/04/24 06:07:32;;;;;;;4.47;4.17;;;;;;;11.97;69.29;98894.56;1702126;81;21045;-51
2022/04/24 06:09:59;;;;;;;3.37;3.10;;;;;;;12.01;68.76;98891.55;1697630;81;21438;-52
2022/04/24 06:12:25;;;;;;;3.70;3.50;;;;;;;12.05;68.38;98893.56;1695538;82;21598;-52
2022/04/24 06:14:53;;;;;;;4.15;3.90;;;;;;;12.07;67.96;98896.55;1697842;82;21936;-51
2022/04/24 06:17:20;;;;;;;3.98;3.77;;;;;;;12.07;67.10;98895.20;1702481;81;21057;-51
2022/04/24 06:19:47;;;;;;;4.12;3.92;;;;;;;12.03;66.08;98895.48;1701216;81;21350;-53
2022/04/24 06:22:13;;;;;;;4.12;3.83;;;;;;;12.01;66.37;98887.98;1700418;81;21412;-53
2022/04/24 06:24:41;;;;;;;3.58;3.27;;;;;;;12.03;66.45;98892.31;1705707;81;21424;-52
2022/04/24 06:27:08;;;;;;;3.55;3.08;;;;;;;12.07;66.37;98901.08;1707134;81;21689;-50
2022/04/24 06:29:35;;;;;;;3.40;3.20;;;;;;;12.11;66.59;98898.05;1703587;81;21040;-50
2022/04/24 06:32:04;;;;;;;3.83;3.62;;;;;;;12.19;66.58;98897.52;1700017;81;21132;-52
2022/04/24 06:34:31;;;;;;;4.08;3.87;;;;;;;12.30;66.89;98899.02;1704067;81;21148;-52
2022/04/24 06:36:58;;;;;;;3.65;3.45;;;;;;;12.43;66.65;98900.36;1700373;81;21820;-52
2022/04/24 06:39:26;;;;;;;4.70;4.40;;;;;;;12.53;65.36;98900.59;1698246;81;21089;-52
2022/04/24 06:41:54;;;;;;;4.92;4.62;;;;;;;12.58;62.80;98899.81;1700549;81;21061;-52
2022/04/24 06:44:24;;;;;;;5.15;4.80;;;;;;;12.57;62.71;98907.04;1700818;81;21054;-52
2022/04/24 06:46:50;;;;;;;5.20;4.90;;;;;;;12.57;62.39;98905.69;1700340;81;21143;-53
2022/04/24 06:49:18;;;;;;;5.40;5.10;;;;;;;12.61;60.82;98907.67;1700593;81;21065;-52
2022/04/24 06:51:45;;;;;;;4.97;4.67;;;;;;;12.60;61.00;98910.86;1693757;81;21059;-53
2022/04/24 06:54:12;;;;;;;5.53;5.05;;;;;;;12.63;61.26;98912.00;1685803;82;21560;-52
2022/04/24 06:56:39;;;;;;;3.12;2.92;;;;;;;12.70;61.09;98903.84;1652483;83;21085;-52
2022/04/24 06:59:06;;;;;;;4.15;3.95;;;;;;;12.79;61.08;98904.55;1697203;81;21222;-51
2022/04/24 07:01:32;;;;;;;4.78;4.05;;;;;;;12.86;59.94;98911.24;1684071;82;21178;-51
2022/04/24 07:04:00;;;;;;;4.35;3.58;;;;;;;12.93;59.58;98906.78;1698629;82;21121;-52
2022/04/24 07:06:27;;;;;;;3.05;2.85;;;;;;;13.01;59.30;98902.56;1702204;81;21700;-52
2022/04/24 07:08:55;;;;;;;2.55;2.35;;;;;;;13.12;58.65;98903.11;1701864;81;22088;-52
2022/04/24 07:11:22;;;;;;;3.00;2.70;;;;;;;13.24;57.69;98911.73;1699839;81;21330;-51
2022/04/24 07:13:49;;;;;;;1.57;1.47;;;;;;;13.32;56.79;98909.83;1705813;81;21037;-51
2022/04/24 07:16:15;;;;;;;2.33;2.12;;;;;;;13.36;56.27;98908.61;1708900;81;21301;-52
2022/04/24 07:18:42;;;;;;;1.40;1.30;;;;;;;13.43;55.63;98907.22;1705194;81;21077;-52
2022/04/24 07:21:10;;;;;;;1.87;1.27;;;;;;;13.49;54.80;98915.73;1708325;81;21048;-51
2022/04/24 07:23:37;;;;;;;1.40;1.30;;;;;;;13.53;54.78;98905.05;1700793;81;21108;-50
2022/04/24 07:26:03;;;;;;;1.77;1.17;;;;;;;13.61;54.40;98909.41;1704165;81;21112;-50
2022/04/24 07:28:32;;;;;;;0.75;0.70;;;;;;;13.80;52.47;98912.09;1699455;81;21621;-50
2022/04/24 07:31:00;;;;;;;0.62;0.62;;;;;;;13.80;52.47;98912.09;1707044;81;21522;-51
2022/04/24 07:33:29;;;;;;;0.75;0.70;;;;;;;13.82;50.51;98916.42;1699810;82;21049;-52
2022/04/24 07:35:55;;;;;;;1.27;0.80;;;;;;;13.79;48.71;98918.48;1699315;81;21138;-51
2022/04/24 07:38:22;;;;;;;0.82;0.80;;;;;;;13.68;46.64;98917.09;1706014;81;21544;-50
2022/04/24 07:40:48;;;;;;;0.70;0.70;;;;;;;13.57;47.74;98917.38;1703405;81;21151;-51
2022/04/24 07:43:15;;;;;;;0.93;0.70;;;;;;;13.54;47.85;98927.55;1706072;81;22377;-50
2022/04/24 07:45:47;;;;;;;0.60;0.60;;;;;;;13.56;46.94;98929.66;1701053;81;21129;-49
2022/04/24 07:48:16;;;;;;;1.05;0.70;;;;;;;13.59;46.81;98934.37;1706363;81;21172;-53
2022/04/24 07:50:50;;;;;;;0.70;0.57;;;;;;;13.62;46.60;98934.61;1702437;82;21141;-52
2022/04/24 07:53:17;;;;;;;1.17;0.70;;;;;;;13.63;45.33;98926.87;1701851;81;21049;-52
2022/04/24 07:55:49;;;;;;;0.53;0.53;;;;;;;13.58;44.69;98924.52;1699447;81;20918;-52
2022/04/24 07:58:15;;;;;;;0.70;0.53;;;;;;;13.57;46.40;98924.14;1699524;82;20997;-51
2022/04/24 08:00:43;;;;;;;0.60;0.57;;;;;;;13.60;44.20;98919.88;1699053;82;20926;-51
2022/04/24 08:03:13;;;;;;;0.60;0.50;;;;;;;13.60;44.39;98911.77;1699801;81;21171;-51
2022/04/24 08:05:44;;;;;;;0.60;0.60;;;;;;;13.70;44.68;98920.52;1697728;81;21025;-51
2022/04/24 08:08:17;;;;;;;0.70;0.60;;;;;;;13.70;44.68;98920.52;1703517;81;20962;-51
2022/04/24 08:10:49;;;;;;;0.70;0.62;;;;;;;13.78;44.58;98914.08;1701467;81;20986;-52
2022/04/24 08:13:18;;;;;;;0.82;0.70;;;;;;;13.81;44.71;98916.05;1698146;81;21785;-51
2022/04/24 08:15:47;;;;;;;0.80;0.80;;;;;;;13.84;44.81;98925.30;1697115;82;21140;-51
2022/04/24 08:18:15;;;;;;;0.80;0.80;;;;;;;13.91;45.43;98917.58;1703382;81;20894;-52
2022/04/24 08:20:42;;;;;;;0.80;0.80;;;;;;;13.98;46.07;98921.06;1701767;81;21107;-51
2022/04/24 08:23:10;;;;;;;0.80;0.70;;;;;;;14.08;45.82;98924.42;1699785;81;21720;-51
2022/04/24 08:25:37;;;;;;;0.70;0.68;;;;;;;14.13;45.39;98934.40;1705298;81;21670;-51
2022/04/24 08:28:08;;;;;;;0.70;0.70;;;;;;;14.17;45.29;98922.38;1700740;82;21124;-51
2022/04/24 08:30:37;;;;;;;0.80;0.70;;;;;;;14.16;45.34;98921.52;1701710;81;21188;-53
2022/04/24 08:33:06;;;;;;;0.80;0.80;;;;;;;14.19;46.13;98924.48;1705323;81;21396;-52
2022/04/24 08:35:33;;;;;;;1.20;0.80;;;;;;;14.25;45.71;98926.23;1699726;81;21140;-51
2022/04/24 08:38:01;;;;;;;0.90;0.70;;;;;;;14.26;45.92;98923.91;1697369;82;22248;-51
2022/04/24 08:40:29;;;;;;;0.60;0.55;;;;;;;14.31;46.54;98932.52;1704718;81;21555;-52
2022/04/24 08:42:56;;;;;;;3.00;0.60;;;;;;;14.36;46.01;98920.87;1704397;81;21562;-53
2022/04/24 08:45:28;;;;;;;1.82;0.65;;;;;;;14.44;46.11;98920.80;1704560;81;21089;-53
2022/04/24 08:47:57;;;;;;;0.80;0.70;;;;;;;14.53;44.52;98915.54;1705884;81;21148;-51
2022/04/24 08:50:28;;;;;;;0.65;0.65;;;;;;;14.58;45.04;98928.22;1705188;81;20983;-52
2022/04/24 08:52:56;;;;;;;0.60;0.60;;;;;;;14.62;45.24;98923.44;1704079;81;21864;-51
2022/04/24 08:55:27;;;;;;;2.60;0.60;;;;;;;14.71;45.56;98926.78;1702888;81;21014;-52
2022/04/24 08:57:53;;;;;;;0.90;0.80;;;;;;;14.79;45.84;98925.70;1699010;81;21061;-51
2022/04/24 09:00:20;;;;;;;0.80;0.70;;;;;;;14.84;44.14;98924.83;1705400;81;21064;-51
2022/04/24 09:02:48;;;;;;;1.30;1.20;;;;;;;14.83;43.93;98928.52;1702186;81;21482;-53
2022/04/24 09:05:15;;;;;;;1.37;0.75;;;;;;;14.79;44.48;98918.92;1704920;82;22326;-50
2022/04/24 09:07:46;;;;;;;0.70;0.62;;;;;;;14.73;43.89;98922.95;1701050;81;21156;-53
2022/04/24 09:10:14;;;;;;;0.72;0.72;;;;;;;14.67;44.62;98927.99;1696422;81;21069;-52
2022/04/24 09:12:42;;;;;;;0.80;0.70;;;;;;;14.64;44.53;98922.80;1698854;81;21124;-53
2022/04/24 09:17:48;;;;;;;0.70;0.70;;;;;;;14.61;43.99;98927.99;1789374;79;22704;-52
2022/04/24 09:20:18;;;;;;;1.07;0.70;;;;;;;14.55;43.86;98935.70;1762139;80;20989;-52
2022/04/24 09:22:47;;;;;;;2.05;0.80;;;;;;;14.54;44.00;98938.06;1767788;80;21009;-50
2022/04/24 09:25:15;;;;;;;0.60;0.60;;;;;;;14.52;43.76;98927.34;1762600;79;21005;-51
2022/04/24 09:27:41;;;;;;;2.00;0.70;;;;;;;14.53;44.21;98936.34;1763734;80;21048;-52
2022/04/24 09:30:14;;;;;;;0.70;0.70;;;;;;;14.57;45.11;98936.45;1767980;80;21379;-53
2022/04/24 09:32:52;;;;;;;0.70;0.65;;;;;;;14.62;45.27;98936.49;1765222;80;21507;-53
2022/04/24 09:35:27;;;;;;;0.80;0.70;;;;;;;14.68;44.89;98934.66;1766659;80;21128;-52
2022/04/24 09:38:17;;;;;;;0.75;0.60;;;;;;;14.75;45.27;98937.73;1759785;80;20969;-52
2022/04/24 09:40:46;;;;;;;0.80;0.70;;;;;;;14.81;45.05;98932.32;1761850;80;21141;-50
2022/04/24 09:43:15;;;;;;;2.15;0.70;;;;;;;14.81;43.85;98937.25;1764036;80;21104;-53
2022/04/24 09:45:48;;;;;;;1.37;0.80;;;;;;;14.81;44.06;98939.95;1763647;80;21076;-51
2022/04/24 09:48:18;;;;;;;0.80;0.60;;;;;;;14.83;43.65;98938.00;1764887;80;21498;-50
2022/04/24 09:50:44;;;;;;;0.60;0.60;;;;;;;14.88;43.56;98938.52;1768704;80;21030;-51
2022/04/24 09:53:19;;;;;;;0.50;0.50;;;;;;;14.95;43.84;98940.25;1760298;80;21479;-52
2022/04/24 09:55:49;;;;;;;0.57;0.55;;;;;;;15.02;44.02;98933.36;1763884;80;21582;-52
2022/04/24 09:58:15;;;;;;;1.15;0.60;;;;;;;15.12;44.26;98942.48;1756511;79;21123;-51
2022/04/24 10:00:44;;;;;;;0.50;0.50;;;;;;;15.23;44.39;98945.67;1753265;80;21176;-52
2022/04/24 10:03:16;;;;;;;1.30;0.60;;;;;;;15.32;43.22;98946.30;1755553;80;21317;-52
2022/04/24 10:05:47;;;;;;;0.70;0.50;;;;;;;15.34;42.35;98950.62;1759078;80;20977;-52
2022/04/24 10:08:15;;;;;;;1.82;0.55;;;;;;;15.34;42.16;98941.63;1760969;80;21778;-50
2022/04/24 10:10:43;;;;;;;0.88;0.60;;;;;;;15.36;42.91;98952.72;1758139;80;21460;-50
2022/04/24 10:13:12;;;;;;;0.60;0.60;;;;;;;15.43;43.72;98948.52;1754398;80;21470;-50
2022/04/24 10:15:51;;;;;;;6.10;0.70;;;;;;;15.56;44.06;98940.80;1753613;80;21506;-51
2022/04/24 10:18:38;;;;;;;0.50;0.50;;;;;;;15.68;43.97;98934.35;1749864;80;21630;-51
2022/04/24 10:21:41;;;;;;;0.53;0.53;;;;;;;15.81;44.08;98934.59;1750537;80;21136;-51
2022/04/24 10:24:11;;;;;;;0.70;0.60;;;;;;;15.93;43.60;98950.34;1752887;80;21077;-52
2022/04/24 10:26:37;;;;;;;0.70;0.70;;;;;;;15.96;42.57;98941.09;1757657;80;21168;-53
2022/04/24 10:29:08;;;;;;;0.60;0.60;;;;;;;15.92;42.81;98936.39;1756762;80;21025;-51
2022/04/24 10:31:45;;;;;;;0.57;0.50;;;;;;;15.92;43.02;98933.68;1753768;80;21109;-51
2022/04/24 10:34:13;;;;;;;0.50;0.50;;;;;;;15.95;42.72;98935.28;1760139;80;21033;-52
2022/04/24 10:36:58;;;;;;;0.50;0.50;;;;;;;15.95;43.17;98935.28;1719288;81;21237;-52
2022/04/24 10:39:28;;;;;;;0.82;0.60;;;;;;;15.98;42.99;98945.91;1695689;83;20975;-52
2022/04/24 10:41:59;;;;;;;1.25;0.50;;;;;;;15.94;42.49;98949.84;1674028;83;20887;-52
2022/04/24 10:44:27;;;;;;;0.90;0.53;;;;;;;15.87;42.08;98947.64;1691493;83;22014;-51
2022/04/24 10:46:57;;;;;;;0.65;0.60;;;;;;;15.81;42.43;98951.37;1689236;83;20887;-52
2022/04/24 10:49:27;;;;;;;0.60;0.50;;;;;;;15.80;43.49;98949.14;1726009;82;20883;-53
2022/04/24 10:51:59;;;;;;;0.50;0.50;;;;;;;15.89;43.83;98951.59;1681220;82;21121;-52
2022/04/24 10:54:32;;;;;;;2.05;0.57;;;;;;;16.03;43.95;98940.94;1707056;82;21288;-51
2022/04/24 10:57:00;;;;;;;5.12;0.60;;;;;;;16.18;44.13;98947.30;1702720;83;20895;-51
2022/04/24 10:59:43;;;;;;;1.12;0.70;;;;;;;16.35;43.82;98939.09;1701813;83;21005;-52
2022/04/24 11:02:09;;;;;;;0.62;0.62;;;;;;;16.45;43.75;98945.47;1727173;82;21045;-52
2022/04/24 11:04:41;;;;;;;1.47;0.68;;;;;;;16.49;42.80;98946.95;1658710;83;20915;-52
2022/04/24 11:07:07;;;;;;;0.60;0.60;;;;;;;16.41;42.44;98942.67;1714128;82;21548;-50
2022/04/24 11:09:36;;;;;;;0.57;0.50;;;;;;;16.27;42.17;98942.45;1724201;82;22202;-52
2022/04/24 11:12:07;;;;;;;0.70;0.70;;;;;;;16.20;42.94;98945.33;1692711;83;21017;-52
2022/04/24 11:14:37;;;;;;;0.60;0.60;;;;;;;16.24;42.69;98948.17;1696660;83;20899;-51
2022/04/24 11:17:05;;;;;;;0.50;0.50;;;;;;;16.30;43.09;98942.70;1687902;83;21453;-51
2022/04/24 11:19:35;;;;;;;0.68;0.55;;;;;;;16.38;42.61;98941.56;1678607;84;21049;-52
2022/04/24 11:22:08;;;;;;;0.53;0.53;;;;;;;16.43;42.34;98941.16;1679261;84;21126;-51
2022/04/24 11:24:38;;;;;;;0.75;0.75;;;;;;;16.44;42.78;98939.67;1745172;81;20946;-51
2022/04/24 11:27:11;;;;;;;0.93;0.60;;;;;;;16.52;42.81;98941.73;1743474;81;20872;-52
2022/04/24 11:29:39;;;;;;;;;;;;;;;16.58;42.15;98939.38;1723860;81;21110;-53
2022/04/24 11:32:08;;;;;;;0.45;0.45;;;;;;;16.62;42.08;98941.34;1748577;81;20180;-53
2022/04/24 11:34:36;;;;;;;0.60;0.60;;;;;;;16.66;41.33;98944.68;1687455;83;21098;-54
2022/04/24 11:37:04;;;;;;;0.60;0.60;;;;;;;16.70;42.01;98936.61;1739608;81;21046;-53
2022/04/24 11:39:31;;;;;;;0.80;0.70;;;;;;;16.80;42.20;98952.49;1737145;81;21053;-51
2022/04/24 11:41:59;;;;;;;1.62;0.65;;;;;;;16.87;41.73;98942.31;1736551;81;22372;-53
2022/04/24 11:50:15;;;;;;;0.78;0.78;;;;;;;16.88;41.29;98941.81;1738536;81;21206;-53